Time;durP1;ratioP1;P1;durP2;ratioP2;P2;SDS_P1;SDS_P2;PMS_P1;PMS_P2;Temp;Humidity;BMP_temperature;BMP_pressure;BME280_temperature;BME280_humidity;BME280_pressure;Samples;Min_cycle;Max_cycle;Signal;HPM_P1;HPM_P2
2024/02/03 00:01:48;;;;;;;5.70;5.40;;;9.90;17.50;;;;;;6269106;22;20162;-80
2024/02/03 00:04:13;;;;;;;6.60;6.20;;;10.10;16.30;;;;;;6228318;22;20167;-81
2024/02/03 00:06:39;;;;;;;6.67;6.37;;;10.20;15.80;;;;;;6280497;22;20710;-81
2024/02/03 00:09:07;;;;;;;6.03;5.63;;;10.30;15.70;;;;;;6272739;22;20179;-80
2024/02/03 00:11:33;;;;;;;5.63;5.33;;;10.20;15.60;;;;;;6230627;22;20186;-80
2024/02/03 00:13:59;;;;;;;5.40;5.00;;;10.10;15.50;;;;;;6254993;22;20453;-80
2024/02/03 00:16:25;;;;;;;5.30;5.03;;;9.90;16.70;;;;;;6276378;22;20393;-80
2024/02/03 00:18:50;;;;;;;5.43;5.20;;;9.70;17.20;;;;;;6270602;22;20166;-80
2024/02/03 00:21:16;;;;;;;5.87;5.57;;;9.40;18.00;;;;;;6254327;22;20159;-80
2024/02/03 00:23:45;;;;;;;5.07;4.87;;;9.20;18.30;;;;;;6268559;22;20192;-81
2024/02/03 00:26:11;;;;;;;5.47;5.17;;;9.10;18.60;;;;;;6281330;22;20708;-83
2024/02/03 00:28:37;;;;;;;5.13;4.83;;;8.90;19.10;;;;;;6267786;22;20408;-81
2024/02/03 00:31:03;;;;;;;5.40;5.10;;;8.90;19.20;;;;;;6281708;22;20420;-81
2024/02/03 00:33:28;;;;;;;6.10;5.80;;;8.90;19.30;;;;;;6278930;22;20173;-82
2024/02/03 00:35:54;;;;;;;8.53;7.83;;;9.00;19.40;;;;;;6271663;22;20377;-81
2024/02/03 00:38:20;;;;;;;8.87;8.27;;;9.20;19.20;;;;;;6254567;22;20155;-81
2024/02/03 00:40:46;;;;;;;7.00;6.60;;;9.40;18.80;;;;;;6282772;22;20135;-82
2024/02/03 00:43:14;;;;;;;6.30;5.97;;;9.60;18.30;;;;;;6276057;22;20170;-81
2024/02/03 00:45:40;;;;;;;5.90;5.60;;;9.80;18.10;;;;;;6282109;22;20465;-82
2024/02/03 00:48:07;;;;;;;6.07;5.47;;;9.90;17.70;;;;;;6275142;22;20381;-81
2024/02/03 00:50:32;;;;;;;6.17;5.70;;;10.00;16.80;;;;;;6256176;22;20500;-80
2024/02/03 00:52:58;;;;;;;5.30;5.10;;;10.00;16.40;;;;;;6275799;22;20373;-79
2024/02/03 00:55:24;;;;;;;5.70;5.30;;;10.00;16.10;;;;;;6257640;22;20150;-80
2024/02/03 00:57:51;;;;;;;5.23;4.93;;;10.10;16.00;;;;;;6272233;22;20147;-80
2024/02/03 01:00:17;;;;;;;5.37;5.17;;;10.00;16.10;;;;;;6229169;22;20174;-80
2024/02/03 01:02:43;;;;;;;5.50;5.20;;;9.90;17.30;;;;;;6281959;22;20759;-80
2024/02/03 01:05:09;;;;;;;5.33;5.00;;;9.60;17.60;;;;;;6275018;22;20381;-81
2024/02/03 01:07:34;;;;;;;5.60;5.17;;;9.40;18.20;;;;;;6254772;22;20705;-81
2024/02/03 01:10:00;;;;;;;5.33;5.13;;;9.10;18.70;;;;;;6272331;22;20413;-80
2024/02/03 01:12:26;;;;;;;5.50;5.23;;;8.90;19.20;;;;;;6255038;22;20538;-80
2024/02/03 01:14:53;;;;;;;5.57;5.30;;;8.80;19.40;;;;;;6271371;22;20170;-81
2024/02/03 01:17:18;;;;;;;5.97;5.67;;;8.70;19.60;;;;;;6228533;22;20728;-80
2024/02/03 01:19:44;;;;;;;5.40;5.13;;;8.60;19.70;;;;;;6270898;22;20393;-81
2024/02/03 01:22:09;;;;;;;5.63;5.43;;;8.50;19.80;;;;;;6283867;22;20155;-80
2024/02/03 01:24:36;;;;;;;4.97;4.67;;;8.60;19.80;;;;;;6284971;22;20518;-80
2024/02/03 01:27:01;;;;;;;6.60;6.27;;;8.70;19.70;;;;;;6283986;22;20203;-81
2024/02/03 01:29:27;;;;;;;5.33;5.07;;;8.80;20.20;;;;;;6280955;22;20413;-81
2024/02/03 01:31:53;;;;;;;4.63;4.43;;;9.00;19.60;;;;;;6284589;22;20185;-81
2024/02/03 01:34:19;;;;;;;4.87;4.67;;;9.20;18.70;;;;;;6278624;22;20476;-81
2024/02/03 01:36:44;;;;;;;5.73;5.43;;;9.10;18.60;;;;;;6271500;22;20154;-81
2024/02/03 01:39:10;;;;;;;4.50;4.40;;;8.90;18.70;;;;;;6286939;22;20218;-81
2024/02/03 01:41:35;;;;;;;5.37;5.17;;;8.90;19.10;;;;;;6316103;22;20160;-81
2024/02/03 01:44:01;;;;;;;5.13;4.93;;;8.70;19.30;;;;;;6313427;22;20257;-79
2024/02/03 01:46:28;;;;;;;5.13;4.87;;;8.60;19.80;;;;;;6287076;22;20162;-81
2024/02/03 01:48:54;;;;;;;5.40;5.20;;;8.70;19.40;;;;;;6287050;22;20411;-81
2024/02/03 01:51:20;;;;;;;5.87;5.50;;;8.60;19.60;;;;;;6287341;22;20425;-81
2024/02/03 01:53:46;;;;;;;5.50;5.20;;;8.50;20.00;;;;;;6288035;22;20153;-80
2024/02/03 01:56:15;;;;;;;5.30;5.10;;;8.40;20.10;;;;;;6285931;22;20387;-80
2024/02/03 01:58:41;;;;;;;5.10;4.80;;;8.30;20.50;;;;;;6287791;22;20377;-79
2024/02/03 02:01:07;;;;;;;4.90;4.57;;;8.10;20.70;;;;;;6286550;22;20875;-80
2024/02/03 02:03:32;;;;;;;4.83;4.53;;;8.00;20.90;;;;;;6315018;22;20373;-80
2024/02/03 02:05:58;;;;;;;4.13;3.97;;;8.00;20.80;;;;;;6289830;22;20380;-80
2024/02/03 02:08:35;;;;;;;4.90;4.70;;;8.10;21.40;;;;;;6290167;22;20172;-80
2024/02/03 02:11:02;;;;;;;5.80;5.30;;;8.40;20.70;;;;;;6290915;22;20420;-80
2024/02/03 02:13:28;;;;;;;4.83;4.63;;;8.70;20.10;;;;;;6289358;22;20392;-81
2024/02/03 02:15:53;;;;;;;5.37;5.17;;;8.90;19.60;;;;;;6288689;22;20459;-81
2024/02/03 02:18:19;;;;;;;5.90;5.60;;;9.10;19.10;;;;;;6317029;22;20376;-81
2024/02/03 02:20:44;;;;;;;5.03;4.83;;;9.30;18.80;;;;;;6316139;22;20170;-80
2024/02/03 02:23:10;;;;;;;5.43;5.13;;;9.50;18.60;;;;;;6289135;22;20150;-80
2024/02/03 02:25:36;;;;;;;5.00;4.80;;;9.50;18.70;;;;;;6287161;22;20150;-81
2024/02/03 02:28:01;;;;;;;5.20;5.00;;;9.40;18.60;;;;;;6314944;22;20244;-81
2024/02/03 02:30:27;;;;;;;5.20;5.00;;;9.40;18.80;;;;;;6287313;22;20538;-80
2024/02/03 02:32:53;;;;;;;5.60;5.30;;;9.40;18.60;;;;;;6287604;22;20154;-81
2024/02/03 02:35:18;;;;;;;5.10;4.90;;;9.10;19.00;;;;;;6315317;22;20195;-80
2024/02/03 02:37:44;;;;;;;4.87;4.57;;;8.90;19.40;;;;;;6313872;22;20149;-81
2024/02/03 02:40:11;;;;;;;5.20;5.00;;;8.80;19.60;;;;;;6287383;22;20190;-82
2024/02/03 02:42:37;;;;;;;5.33;5.13;;;8.60;20.00;;;;;;6300499;22;20435;-80
2024/02/03 02:45:03;;;;;;;5.43;5.23;;;8.30;20.60;;;;;;6309332;22;20368;-80
2024/02/03 02:47:28;;;;;;;5.77;5.57;;;8.30;20.90;;;;;;6308490;22;20157;-80
2024/02/03 02:49:54;;;;;;;5.17;4.97;;;8.40;21.20;;;;;;6281987;22;20401;-80
2024/02/03 02:52:19;;;;;;;5.50;5.30;;;8.70;20.60;;;;;;6310301;22;20177;-80
2024/02/03 02:54:45;;;;;;;5.30;5.10;;;8.90;20.20;;;;;;6310768;22;20196;-80
2024/02/03 02:57:10;;;;;;;5.20;5.00;;;9.10;19.90;;;;;;6284317;22;20241;-79
2024/02/03 02:59:36;;;;;;;5.50;5.27;;;9.20;19.50;;;;;;6310669;22;20249;-79
2024/02/03 03:02:02;;;;;;;5.40;5.20;;;9.30;19.20;;;;;;6284374;22;20587;-79
2024/02/03 03:04:28;;;;;;;5.50;5.23;;;9.50;18.90;;;;;;6281599;22;20613;-79
2024/02/03 03:06:53;;;;;;;5.07;4.87;;;9.50;18.50;;;;;;6280763;22;20380;-79
2024/02/03 03:09:19;;;;;;;5.30;5.10;;;9.40;18.50;;;;;;6282047;22;20170;-79
2024/02/03 03:11:44;;;;;;;5.33;5.13;;;9.10;19.80;;;;;;6310761;22;20610;-79
2024/02/03 03:14:12;;;;;;;5.67;5.47;;;8.80;19.80;;;;;;6292346;22;20154;-81
2024/02/03 03:16:37;;;;;;;5.33;5.13;;;8.70;20.40;;;;;;6307447;22;20157;-81
2024/02/03 03:19:03;;;;;;;4.87;4.57;;;8.60;21.00;;;;;;6288358;22;20886;-79
2024/02/03 03:21:28;;;;;;;5.03;4.83;;;8.70;20.60;;;;;;6281606;22;20154;-79
2024/02/03 03:23:54;;;;;;;5.00;4.80;;;8.60;21.10;;;;;;6281978;22;20150;-79
2024/02/03 03:26:19;;;;;;;5.77;5.47;;;8.70;21.10;;;;;;6307596;22;20143;-80
2024/02/03 03:28:45;;;;;;;5.00;4.80;;;8.70;20.60;;;;;;6281092;22;20154;-79
2024/02/03 03:31:10;;;;;;;5.90;5.70;;;8.50;20.80;;;;;;6282283;22;20190;-79
2024/02/03 03:33:36;;;;;;;5.63;5.33;;;8.40;21.20;;;;;;6282585;22;20154;-80
2024/02/03 03:36:02;;;;;;;5.90;5.70;;;8.40;21.50;;;;;;6309926;22;20142;-79
2024/02/03 03:38:29;;;;;;;5.70;5.50;;;8.50;21.70;;;;;;6283933;22;20146;-80
2024/02/03 03:40:56;;;;;;;5.43;5.03;;;8.70;21.30;;;;;;6282821;22;20194;-80
2024/02/03 03:43:22;;;;;;;5.77;5.53;;;8.80;21.00;;;;;;6283612;22;20417;-79
2024/02/03 03:45:49;;;;;;;6.20;5.90;;;8.80;20.40;;;;;;6283231;22;20693;-79
2024/02/03 03:48:15;;;;;;;5.93;5.73;;;8.70;20.70;;;;;;6284175;22;20161;-79
2024/02/03 03:50:40;;;;;;;5.00;4.80;;;8.70;20.70;;;;;;6283785;22;20417;-79
2024/02/03 03:53:06;;;;;;;5.00;4.80;;;8.70;20.40;;;;;;6285473;22;20150;-80
2024/02/03 03:55:31;;;;;;;5.30;5.10;;;8.50;21.10;;;;;;6284813;22;20896;-81
2024/02/03 03:57:57;;;;;;;5.40;5.20;;;8.40;21.40;;;;;;6286482;22;20157;-80
2024/02/03 04:00:22;;;;;;;5.10;4.90;;;8.20;22.10;;;;;;6286148;22;20192;-81
2024/02/03 04:02:48;;;;;;;5.53;5.27;;;8.30;22.40;;;;;;6287445;22;20206;-80
2024/02/03 04:05:13;;;;;;;6.00;5.70;;;8.30;21.80;;;;;;6287350;22;20170;-80
2024/02/03 04:07:39;;;;;;;5.33;5.13;;;8.30;22.30;;;;;;6314554;22;20596;-79
2024/02/03 04:10:05;;;;;;;5.77;5.50;;;8.50;21.70;;;;;;6285422;22;20169;-80
2024/02/03 04:12:30;;;;;;;5.90;5.67;;;8.70;21.30;;;;;;6312768;22;20160;-80
2024/02/03 04:14:56;;;;;;;6.33;6.03;;;8.80;20.60;;;;;;6285030;22;20380;-80
2024/02/03 04:17:22;;;;;;;5.40;5.10;;;8.50;21.20;;;;;;6284860;22;20154;-80
2024/02/03 04:19:47;;;;;;;6.70;5.63;;;8.60;21.40;;;;;;6285424;22;20181;-80
2024/02/03 04:22:13;;;;;;;6.27;5.97;;;8.80;21.10;;;;;;6286114;22;20165;-80
2024/02/03 04:24:39;;;;;;;5.83;5.63;;;8.90;20.30;;;;;;6285420;22;20160;-80
2024/02/03 04:27:05;;;;;;;6.03;5.73;;;8.70;20.90;;;;;;6312732;22;20153;-80
2024/02/03 04:29:31;;;;;;;6.13;5.93;;;8.90;20.90;;;;;;6285290;22;20416;-80
2024/02/03 04:31:56;;;;;;;6.47;6.17;;;9.10;20.30;;;;;;6312642;22;20416;-80
2024/02/03 04:34:22;;;;;;;5.93;5.73;;;9.40;19.80;;;;;;6312697;22;20149;-80
2024/02/03 04:36:47;;;;;;;6.90;6.60;;;9.50;19.50;;;;;;6284541;22;20531;-80
2024/02/03 04:39:13;;;;;;;5.97;5.70;;;9.70;19.20;;;;;;6311816;22;20174;-81
2024/02/03 04:41:39;;;;;;;6.03;5.70;;;9.80;18.90;;;;;;6312146;22;20268;-79
2024/02/03 04:44:04;;;;;;;6.00;5.70;;;9.90;18.60;;;;;;6283455;22;20231;-79
2024/02/03 04:46:30;;;;;;;5.90;5.70;;;10.00;17.60;;;;;;6283752;22;20154;-79
2024/02/03 04:48:55;;;;;;;5.40;5.20;;;9.70;18.40;;;;;;6283875;22;20623;-79
2024/02/03 04:51:21;;;;;;;5.60;5.40;;;9.60;18.90;;;;;;6311904;22;20211;-78
2024/02/03 04:53:47;;;;;;;6.23;5.97;;;9.50;19.10;;;;;;6283395;22;20164;-79
2024/02/03 04:56:12;;;;;;;6.00;5.70;;;9.50;19.30;;;;;;6283722;22;20170;-79
2024/02/03 04:58:38;;;;;;;5.80;5.50;;;9.70;19.10;;;;;;6283085;22;20150;-79
2024/02/03 05:01:04;;;;;;;6.47;5.97;;;9.80;18.90;;;;;;6283555;22;20622;-79
2024/02/03 05:03:31;;;;;;;6.20;5.90;;;9.90;18.50;;;;;;6284106;22;20154;-78
2024/02/03 05:06:01;;;;;;;5.50;5.30;;;9.90;18.20;;;;;;6283354;22;20391;-79
2024/02/03 05:08:27;;;;;;;5.83;5.40;;;9.90;17.90;;;;;;6283434;22;20387;-79
2024/02/03 05:10:52;;;;;;;5.60;5.30;;;9.60;18.50;;;;;;6282875;22;20428;-79
2024/02/03 05:13:18;;;;;;;4.90;4.70;;;9.20;19.20;;;;;;6283857;22;20551;-79
2024/02/03 05:15:43;;;;;;;5.20;4.90;;;8.80;20.30;;;;;;6283595;22;20154;-79
2024/02/03 05:18:09;;;;;;;5.73;5.50;;;8.50;20.90;;;;;;6284129;22;20185;-79
2024/02/03 05:20:34;;;;;;;6.37;6.17;;;8.30;21.60;;;;;;6310863;22;20177;-81
2024/02/03 05:23:00;;;;;;;6.00;5.70;;;8.00;22.30;;;;;;6310349;22;20177;-79
2024/02/03 05:25:26;;;;;;;6.27;5.97;;;8.10;22.70;;;;;;6310138;22;20579;-79
2024/02/03 05:27:51;;;;;;;5.83;5.63;;;8.40;22.30;;;;;;6284040;22;20667;-78
2024/02/03 05:30:17;;;;;;;6.03;5.73;;;8.70;21.50;;;;;;6283852;22;20178;-78
2024/02/03 05:32:42;;;;;;;6.60;6.30;;;8.90;20.90;;;;;;6283731;22;20157;-79
2024/02/03 05:35:09;;;;;;;6.47;6.17;;;9.10;20.40;;;;;;6286187;22;20151;-79
2024/02/03 05:37:35;;;;;;;7.10;6.80;;;9.20;20.10;;;;;;6291475;22;20655;-80
2024/02/03 05:40:00;;;;;;;6.17;5.90;;;9.20;19.50;;;;;;6298956;22;20416;-80
2024/02/03 05:42:29;;;;;;;6.63;6.23;;;9.20;20.00;;;;;;6304080;22;20162;-80
2024/02/03 05:44:56;;;;;;;6.77;6.40;;;9.10;19.80;;;;;;6328157;22;20142;-80
2024/02/03 05:47:21;;;;;;;5.53;5.33;;;8.70;20.60;;;;;;6327287;22;20376;-79
2024/02/03 05:49:47;;;;;;;6.40;6.10;;;8.40;21.30;;;;;;6286997;22;20397;-79
2024/02/03 05:52:12;;;;;;;7.03;6.50;;;8.10;22.60;;;;;;6285817;22;20193;-79
2024/02/03 05:54:38;;;;;;;6.30;6.00;;;7.90;22.90;;;;;;6287027;22;20157;-79
2024/02/03 05:57:04;;;;;;;6.73;6.43;;;8.00;22.70;;;;;;6311822;22;20205;-80
2024/02/03 05:59:29;;;;;;;7.00;6.60;;;8.10;22.70;;;;;;6284458;22;20199;-79
2024/02/03 06:01:55;;;;;;;6.27;5.97;;;7.90;22.60;;;;;;6284336;22;20536;-79
2024/02/03 06:04:20;;;;;;;6.43;6.13;;;7.80;23.30;;;;;;6284944;22;20792;-79
2024/02/03 06:06:46;;;;;;;7.10;6.80;;;7.90;23.30;;;;;;6313307;22;20580;-80
2024/02/03 06:09:12;;;;;;;6.80;6.40;;;8.10;23.40;;;;;;6285561;22;20174;-79
2024/02/03 06:11:38;;;;;;;6.10;5.80;;;8.30;22.90;;;;;;6285795;22;20213;-80
2024/02/03 06:14:03;;;;;;;5.97;5.70;;;8.50;23.00;;;;;;6313632;22;20407;-80
2024/02/03 06:16:29;;;;;;;5.60;5.30;;;8.70;22.10;;;;;;6286183;22;20169;-79
2024/02/03 06:18:54;;;;;;;5.40;5.20;;;8.70;21.80;;;;;;6286813;22;20174;-79
2024/02/03 06:21:20;;;;;;;6.33;6.03;;;8.80;21.50;;;;;;6287190;22;20587;-80
2024/02/03 06:23:45;;;;;;;5.87;5.57;;;8.90;21.60;;;;;;6287664;22;20149;-80
2024/02/03 06:26:11;;;;;;;6.17;5.87;;;8.90;21.20;;;;;;6286756;22;20154;-80
2024/02/03 06:28:36;;;;;;;6.27;5.87;;;9.10;21.00;;;;;;6286671;22;20166;-79
2024/02/03 06:31:02;;;;;;;6.53;6.23;;;9.20;20.80;;;;;;6314783;22;20533;-79
2024/02/03 06:33:27;;;;;;;7.43;7.13;;;9.20;20.80;;;;;;6287711;22;20178;-79
2024/02/03 06:35:53;;;;;;;6.80;6.40;;;9.30;20.70;;;;;;6287334;22;20189;-80
2024/02/03 06:38:19;;;;;;;6.37;6.10;;;9.40;20.50;;;;;;6316639;22;20151;-79
2024/02/03 06:40:44;;;;;;;6.70;6.40;;;9.40;20.40;;;;;;6317847;22;20216;-79
2024/02/03 06:43:10;;;;;;;7.00;6.60;;;9.40;20.30;;;;;;6315337;22;20146;-79
2024/02/03 06:45:36;;;;;;;6.80;6.50;;;9.50;20.20;;;;;;6314689;22;20167;-79
2024/02/03 06:48:02;;;;;;;6.70;6.40;;;9.50;20.10;;;;;;6287800;22;20154;-79
2024/02/03 06:50:27;;;;;;;6.87;6.57;;;9.40;20.60;;;;;;6286542;22;20397;-80
2024/02/03 06:52:53;;;;;;;6.77;6.47;;;9.20;20.50;;;;;;6314009;22;20143;-80
2024/02/03 06:55:18;;;;;;;7.60;7.20;;;8.70;21.90;;;;;;6286627;22;20170;-80
2024/02/03 06:57:44;;;;;;;7.47;7.07;;;8.40;22.90;;;;;;6286119;22;20146;-80
2024/02/03 07:00:10;;;;;;;8.77;8.27;;;8.10;23.40;;;;;;6287017;22;20530;-79
2024/02/03 07:02:36;;;;;;;9.00;8.50;;;7.90;24.60;;;;;;6315281;22;20154;-79
2024/02/03 07:05:01;;;;;;;9.10;8.60;;;7.80;24.70;;;;;;6315191;22;20440;-78
2024/02/03 07:07:27;;;;;;;9.37;8.77;;;7.70;25.30;;;;;;6314283;22;20150;-78
2024/02/03 07:09:58;;;;;;;9.20;8.50;;;7.60;25.50;;;;;;6313193;22;20193;-77
2024/02/03 07:12:24;;;;;;;8.83;8.33;;;7.70;26.30;;;;;;6311968;22;20249;-78
2024/02/03 07:14:49;;;;;;;10.13;9.53;;;7.60;26.00;;;;;;6311135;22;20376;-77
2024/02/03 07:17:15;;;;;;;10.13;9.63;;;7.50;26.50;;;;;;6285788;22;20377;-79
2024/02/03 07:19:41;;;;;;;10.40;9.80;;;7.50;26.70;;;;;;6288445;22;20170;-79
2024/02/03 07:22:06;;;;;;;11.77;11.17;;;7.50;27.20;;;;;;6315891;22;20172;-78
2024/02/03 07:24:32;;;;;;;11.13;10.43;;;7.40;27.40;;;;;;6316060;22;20587;-78
2024/02/03 07:26:57;;;;;;;11.63;10.93;;;7.40;27.80;;;;;;6284648;22;20154;-78
2024/02/03 07:29:23;;;;;;;11.23;10.50;;;7.40;27.90;;;;;;6317065;22;20231;-78
2024/02/03 07:31:48;;;;;;;11.37;10.77;;;7.20;28.90;;;;;;6288289;22;20227;-79
2024/02/03 07:34:18;;;;;;;11.93;11.20;;;7.20;29.40;;;;;;6312997;22;20182;-79
2024/02/03 07:36:43;;;;;;;11.43;10.73;;;7.30;29.20;;;;;;6283916;22;20146;-78
2024/02/03 07:39:09;;;;;;;11.27;10.67;;;7.50;29.00;;;;;;6290954;22;20480;-79
2024/02/03 07:41:35;;;;;;;11.60;11.00;;;7.50;28.90;;;;;;6287852;22;20641;-79
2024/02/03 07:44:00;;;;;;;11.00;10.30;;;7.60;28.60;;;;;;6318406;22;20161;-78
2024/02/03 07:46:26;;;;;;;9.40;8.93;;;7.90;28.30;;;;;;6327452;22;20201;-78
2024/02/03 07:48:51;;;;;;;9.73;9.03;;;8.10;27.00;;;;;;6327853;22;20205;-79
2024/02/03 07:51:17;;;;;;;10.30;9.70;;;8.10;26.30;;;;;;6328105;22;20189;-79
2024/02/03 07:53:42;;;;;;;10.80;10.20;;;8.20;25.80;;;;;;6306021;22;20217;-78
2024/02/03 07:56:08;;;;;;;9.70;9.20;;;8.20;26.20;;;;;;6332947;22;20172;-78
2024/02/03 07:58:33;;;;;;;9.40;8.90;;;8.30;26.60;;;;;;6306970;22;20130;-77
2024/02/03 08:00:59;;;;;;;9.23;8.77;;;8.60;26.10;;;;;;6306130;22;20173;-77
2024/02/03 08:03:24;;;;;;;9.00;8.40;;;8.80;25.60;;;;;;6328184;22;20169;-78
2024/02/03 08:05:49;;;;;;;9.77;9.17;;;9.00;25.00;;;;;;6293287;22;20256;-80
2024/02/03 08:08:15;;;;;;;9.00;8.60;;;9.20;24.40;;;;;;6291988;22;20150;-80
2024/02/03 08:10:40;;;;;;;8.80;8.30;;;9.30;23.50;;;;;;6319556;22;20189;-80
2024/02/03 08:13:06;;;;;;;8.67;8.20;;;9.50;23.20;;;;;;6320488;22;20157;-81
2024/02/03 08:15:31;;;;;;;8.43;8.00;;;9.50;22.50;;;;;;6314405;22;20145;-80
2024/02/03 08:17:57;;;;;;;7.70;7.30;;;9.20;23.00;;;;;;6286820;22;20158;-80
2024/02/03 08:20:23;;;;;;;8.57;7.93;;;9.10;23.40;;;;;;6314161;22;20162;-80
2024/02/03 08:22:48;;;;;;;9.20;8.40;;;9.20;23.40;;;;;;6287500;22;20184;-81
2024/02/03 08:25:14;;;;;;;8.13;7.73;;;9.30;23.50;;;;;;6289488;22;20377;-79
2024/02/03 08:27:40;;;;;;;9.57;8.97;;;9.50;23.20;;;;;;6315149;22;20201;-79
2024/02/03 08:30:07;;;;;;;9.70;9.10;;;9.60;23.00;;;;;;6315190;22;20615;-79
2024/02/03 08:32:33;;;;;;;8.80;8.30;;;9.70;22.80;;;;;;6314832;22;20225;-80
2024/02/03 08:34:58;;;;;;;9.80;9.03;;;9.80;22.70;;;;;;6287242;22;20398;-80
2024/02/03 08:37:24;;;;;;;8.30;7.90;;;9.90;22.50;;;;;;6286871;22;20149;-80
2024/02/03 08:39:49;;;;;;;9.50;9.00;;;9.90;22.90;;;;;;6287705;22;20192;-78
2024/02/03 08:42:15;;;;;;;9.83;9.23;;;9.80;22.70;;;;;;6289110;22;20494;-78
2024/02/03 08:44:41;;;;;;;10.77;9.80;;;9.60;23.70;;;;;;6313822;22;20176;-80
2024/02/03 08:47:06;;;;;;;9.50;8.90;;;9.40;24.20;;;;;;6287221;22;20165;-79
2024/02/03 08:49:32;;;;;;;9.03;8.33;;;9.20;24.70;;;;;;6314366;22;20181;-79
2024/02/03 08:51:57;;;;;;;11.13;10.33;;;9.10;25.30;;;;;;6286628;22;20208;-79
2024/02/03 08:54:23;;;;;;;10.40;9.70;;;9.10;26.40;;;;;;6313709;22;20177;-79
2024/02/03 08:56:48;;;;;;;11.33;10.33;;;9.20;27.00;;;;;;6313680;22;20491;-79
2024/02/03 08:59:14;;;;;;;11.30;10.60;;;9.30;25.90;;;;;;6285807;22;20227;-81
2024/02/03 09:01:39;;;;;;;10.67;9.97;;;9.40;25.80;;;;;;6312847;22;20534;-78
2024/02/03 09:04:07;;;;;;;11.03;10.23;;;9.50;25.90;;;;;;6312724;22;20149;-80
2024/02/03 09:06:33;;;;;;;11.43;10.77;;;9.70;26.40;;;;;;6285107;22;20154;-80
2024/02/03 09:08:58;;;;;;;10.87;10.27;;;9.90;27.00;;;;;;6313312;22;20403;-79
2024/02/03 09:11:24;;;;;;;11.00;10.40;;;10.10;26.40;;;;;;6284595;22;20200;-79
2024/02/03 09:13:52;;;;;;;11.00;10.40;;;10.20;26.40;;;;;;6305689;22;20145;-82
2024/02/03 09:16:18;;;;;;;11.37;10.77;;;10.20;26.30;;;;;;6309341;22;20153;-81
2024/02/03 09:18:43;;;;;;;11.20;10.60;;;10.40;26.10;;;;;;6310796;22;20826;-81
2024/02/03 09:21:10;;;;;;;10.63;10.00;;;10.40;25.90;;;;;;6310365;22;20464;-80
2024/02/03 09:23:37;;;;;;;12.00;11.20;;;10.40;26.00;;;;;;6283930;22;20550;-81
2024/02/03 09:26:03;;;;;;;11.10;10.40;;;10.50;25.70;;;;;;6311418;22;20389;-78
2024/02/03 09:28:29;;;;;;;10.73;10.03;;;10.50;25.60;;;;;;6311053;22;20864;-79
2024/02/03 09:30:54;;;;;;;11.00;10.30;;;10.60;25.50;;;;;;6282350;22;20428;-81
2024/02/03 09:33:20;;;;;;;11.40;10.50;;;10.60;25.40;;;;;;6283876;22;20149;-81
2024/02/03 09:35:48;;;;;;;10.80;9.93;;;10.60;25.60;;;;;;6282565;22;20154;-82
2024/02/03 09:38:14;;;;;;;11.60;10.80;;;10.60;25.70;;;;;;6310938;22;20146;-79
2024/02/03 09:40:39;;;;;;;11.20;10.50;;;10.60;25.70;;;;;;6313119;22;20411;-79
2024/02/03 09:43:05;;;;;;;11.40;10.60;;;10.60;25.60;;;;;;6285936;22;20161;-80
2024/02/03 09:45:31;;;;;;;10.00;9.50;;;10.60;25.80;;;;;;6312783;22;20149;-79
2024/02/03 09:47:57;;;;;;;10.83;10.13;;;10.60;25.80;;;;;;6285989;22;20923;-79
2024/02/03 09:50:23;;;;;;;9.20;8.70;;;10.70;25.80;;;;;;6286093;22;20174;-79
2024/02/03 09:52:49;;;;;;;9.70;9.20;;;10.70;25.90;;;;;;6313022;22;20377;-79
2024/02/03 09:55:16;;;;;;;9.40;8.90;;;10.70;25.90;;;;;;6287318;22;20610;-79
2024/02/03 09:57:45;;;;;;;10.40;9.70;;;10.60;26.00;;;;;;6290147;22;20434;-79
2024/02/03 10:00:11;;;;;;;8.40;8.00;;;10.50;26.50;;;;;;6290552;22;20400;-80
2024/02/03 10:02:37;;;;;;;8.77;8.37;;;10.10;27.90;;;;;;6316293;22;20365;-80
2024/02/03 10:05:03;;;;;;;9.47;8.93;;;9.90;29.70;;;;;;6307935;22;20376;-80
2024/02/03 10:07:29;;;;;;;9.03;8.53;;;9.50;31.30;;;;;;6307233;22;20150;-80
2024/02/03 10:10:09;;;;;;;7.93;7.60;;;9.40;32.00;;;;;;6286076;22;20740;-79
2024/02/03 10:12:35;;;;;;;8.10;7.80;;;9.40;31.90;;;;;;6309786;22;20166;-80
2024/02/03 10:15:08;;;;;;;9.10;8.60;;;9.40;32.20;;;;;;6282378;22;20981;-78
2024/02/03 10:17:34;;;;;;;8.90;8.40;;;9.50;32.00;;;;;;6309622;22;20574;-79
2024/02/03 10:20:00;;;;;;;8.40;8.00;;;9.60;31.90;;;;;;6285190;22;20397;-78
2024/02/03 10:22:26;;;;;;;9.23;8.70;;;9.50;32.00;;;;;;6283127;22;20380;-78
2024/02/03 10:24:52;;;;;;;9.60;9.07;;;9.40;32.00;;;;;;6282946;22;20161;-78
2024/02/03 10:27:23;;;;;;;9.70;9.20;;;9.40;32.20;;;;;;6283068;22;20376;-79
2024/02/03 10:29:55;;;;;;;9.60;9.10;;;9.40;32.00;;;;;;6310976;22;20525;-78
2024/02/03 10:32:22;;;;;;;8.87;8.27;;;9.40;32.10;;;;;;6311041;22;20431;-78
2024/02/03 10:34:49;;;;;;;8.90;8.50;;;9.30;32.60;;;;;;6283987;22;20388;-79
2024/02/03 10:37:15;;;;;;;7.87;7.53;;;9.20;33.20;;;;;;6311636;22;20368;-79
2024/02/03 10:39:42;;;;;;;7.93;7.53;;;9.30;33.00;;;;;;6285185;22;20416;-79
2024/02/03 10:42:13;;;;;;;7.27;6.93;;;9.40;33.10;;;;;;6313335;22;20661;-79
2024/02/03 10:44:39;;;;;;;8.70;8.30;;;9.50;32.20;;;;;;6286799;22;20443;-79
2024/02/03 10:47:06;;;;;;;8.80;8.40;;;9.70;32.20;;;;;;6285988;22;20376;-79
2024/02/03 10:49:32;;;;;;;8.90;8.40;;;9.80;32.00;;;;;;6287570;22;20174;-79
2024/02/03 10:52:01;;;;;;;8.30;7.90;;;9.80;31.20;;;;;;6313781;22;20410;-80
2024/02/03 10:54:29;;;;;;;7.70;7.30;;;9.90;30.90;;;;;;6265286;22;20425;-78
2024/02/03 10:56:56;;;;;;;8.53;8.13;;;10.00;29.70;;;;;;6291072;22;20443;-78
2024/02/03 10:59:22;;;;;;;8.40;8.00;;;10.00;29.30;;;;;;6314429;22;20467;-79
2024/02/03 11:01:48;;;;;;;8.53;8.13;;;10.20;29.40;;;;;;6314859;22;20368;-79
2024/02/03 11:04:14;;;;;;;8.60;8.20;;;10.30;29.10;;;;;;6287646;22;20926;-80
2024/02/03 11:06:41;;;;;;;8.23;7.83;;;10.30;28.30;;;;;;6314677;22;20582;-79
2024/02/03 11:09:12;;;;;;;7.87;7.47;;;10.40;28.40;;;;;;6317542;22;20708;-79
2024/02/03 11:11:43;;;;;;;8.40;8.00;;;10.20;27.80;;;;;;6287651;22;20419;-78
2024/02/03 11:14:14;;;;;;;8.30;7.80;;;10.20;28.20;;;;;;6287370;22;20377;-79
2024/02/03 11:16:40;;;;;;;7.80;7.50;;;10.10;28.80;;;;;;6286677;22;20376;-79
2024/02/03 11:19:09;;;;;;;8.60;7.93;;;10.10;28.90;;;;;;6314144;22;20764;-79
2024/02/03 11:21:43;;;;;;;8.30;7.90;;;10.20;28.40;;;;;;6315405;22;20481;-79
2024/02/03 11:24:10;;;;;;;7.60;7.20;;;10.10;28.50;;;;;;6288144;22;20782;-79
2024/02/03 11:26:37;;;;;;;8.80;8.40;;;10.00;28.80;;;;;;6315177;22;20425;-79
2024/02/03 11:29:03;;;;;;;8.07;7.73;;;10.10;28.50;;;;;;6318882;22;20475;-79
2024/02/03 11:31:30;;;;;;;8.40;8.00;;;10.10;28.80;;;;;;6287060;22;20422;-79
2024/02/03 11:33:57;;;;;;;7.50;7.20;;;10.20;28.50;;;;;;6315159;22;20434;-78
2024/02/03 11:36:22;;;;;;;10.87;10.17;;;10.10;28.50;;;;;;6287507;22;20432;-80
2024/02/03 11:38:49;;;;;;;9.03;8.33;;;10.20;28.40;;;;;;6315236;22;20402;-80
2024/02/03 11:41:15;;;;;;;7.90;7.50;;;10.40;28.20;;;;;;6287381;22;20147;-80
2024/02/03 11:43:41;;;;;;;8.10;7.80;;;10.50;27.50;;;;;;6287034;22;20381;-80
2024/02/03 11:46:10;;;;;;;7.70;7.40;;;10.40;27.50;;;;;;6287630;22;20425;-80
2024/02/03 11:48:37;;;;;;;8.30;7.90;;;10.50;27.60;;;;;;6313709;22;20695;-79
2024/02/03 11:51:04;;;;;;;8.07;7.67;;;10.60;27.30;;;;;;6285516;22;20745;-80
2024/02/03 11:53:29;;;;;;;8.33;7.93;;;10.80;27.00;;;;;;6319967;22;20365;-80
2024/02/03 11:55:56;;;;;;;8.37;7.80;;;10.90;26.60;;;;;;6327988;22;20368;-79
2024/02/03 11:58:25;;;;;;;8.27;7.70;;;10.90;26.50;;;;;;6321318;22;20522;-79
2024/02/03 12:01:07;;;;;;;11.37;10.77;;;11.00;26.30;;;;;;6309469;22;20389;-79
2024/02/03 12:03:35;;;;;;;11.77;11.17;;;11.20;26.10;;;;;;6308210;22;20825;-80
2024/02/03 12:06:02;;;;;;;10.40;9.80;;;11.20;25.90;;;;;;6308564;22;20724;-79
2024/02/03 12:08:28;;;;;;;8.43;7.87;;;11.30;25.70;;;;;;6309014;22;20373;-79
2024/02/03 12:10:54;;;;;;;7.60;7.30;;;11.40;25.60;;;;;;6309392;22;20732;-79
2024/02/03 12:13:19;;;;;;;6.50;6.27;;;11.40;24.80;;;;;;6309062;22;20384;-79
2024/02/03 12:15:45;;;;;;;5.77;5.57;;;11.40;25.30;;;;;;6281555;22;20150;-79
2024/02/03 12:18:11;;;;;;;6.50;6.20;;;11.50;24.40;;;;;;6308866;22;20165;-78
2024/02/03 12:20:38;;;;;;;6.17;5.97;;;11.50;24.20;;;;;;6282380;22;20457;-79
2024/02/03 12:23:03;;;;;;;6.17;5.83;;;11.60;24.30;;;;;;6309911;22;20404;-79
2024/02/03 12:25:29;;;;;;;5.80;5.60;;;11.50;23.90;;;;;;6285300;22;20380;-79
2024/02/03 12:27:55;;;;;;;5.30;5.20;;;11.60;23.50;;;;;;6286637;22;20233;-80
2024/02/03 12:30:21;;;;;;;4.50;4.40;;;11.50;23.30;;;;;;6313867;22;20214;-79
2024/02/03 12:32:47;;;;;;;4.90;4.80;;;11.50;23.50;;;;;;6285307;22;20195;-79
2024/02/03 12:35:14;;;;;;;5.17;4.97;;;11.60;23.20;;;;;;6285455;22;20411;-79
2024/02/03 12:37:40;;;;;;;4.77;4.67;;;11.60;22.90;;;;;;6284014;22;20877;-79
2024/02/03 12:40:09;;;;;;;4.87;4.77;;;11.70;23.00;;;;;;6312675;22;20434;-79
2024/02/03 12:42:35;;;;;;;4.67;4.57;;;11.60;23.10;;;;;;6313456;22;20377;-79
2024/02/03 12:45:01;;;;;;;5.60;5.50;;;11.60;23.50;;;;;;6313489;22;20460;-78
2024/02/03 12:47:27;;;;;;;5.00;4.90;;;11.70;23.20;;;;;;6312497;22;20434;-80